TNO1122 KASE-KIND
Flight info
| Callsign | TNO1122 |
|---|---|
| Flight time | 2h 18m |
| Altitude | 41000 |
| Route | LINDZ1 LINDZ IDENE JNETT POWDR HGO CABET ATIJA FONIX SPI J80 VHP |
| Aircraft | LJ45/M-SDFGILRWY/SB1 |
Departure
| Time | 2026-04-28 12:22 |
|---|---|
| Airport | Aspen-Pitkin County Airport (Sardy Field) (KASE) |
Arrival
| Time | 2026-04-28 14:41 |
|---|---|
| Airport | Indianapolis International Airport (KIND) |
| Time | Latitude | Longitude | Altitude | Speed | Heading |
|---|---|---|---|---|---|
| 2026-04-28 12:12 | 39.22614 | -106.86895 | 7827 ft | 0 kts | 70° |
| 2026-04-28 12:16 | 39.22613 | -106.86900 | 7827 ft | 2 kts | 71° |
| 2026-04-28 12:17 | 39.22610 | -106.86922 | 7827 ft | 3 kts | 97° |
| 2026-04-28 12:17 | 39.22617 | -106.86946 | 7827 ft | 3 kts | 125° |
| 2026-04-28 12:17 | 39.22633 | -106.86963 | 7827 ft | 2 kts | 155° |
| 2026-04-28 12:17 | 39.22606 | -106.86949 | 7827 ft | 12 kts | 158° |
| 2026-04-28 12:18 | 39.22535 | -106.86916 | 7827 ft | 7 kts | 160° |
| 2026-04-28 12:18 | 39.22504 | -106.86902 | 7827 ft | 9 kts | 160° |
| 2026-04-28 12:18 | 39.22417 | -106.86861 | 7827 ft | 14 kts | 160° |
| 2026-04-28 12:18 | 39.22328 | -106.86820 | 7827 ft | 13 kts | 160° |
| 2026-04-28 12:19 | 39.22247 | -106.86782 | 7827 ft | 12 kts | 160° |
| 2026-04-28 12:19 | 39.22134 | -106.86726 | 7827 ft | 23 kts | 159° |
| 2026-04-28 12:19 | 39.21954 | -106.86639 | 7827 ft | 26 kts | 159° |
| 2026-04-28 12:19 | 39.21811 | -106.86571 | 7827 ft | 17 kts | 160° |
| 2026-04-28 12:20 | 39.21719 | -106.86527 | 7827 ft | 14 kts | 160° |
| 2026-04-28 12:20 | 39.21626 | -106.86484 | 7827 ft | 15 kts | 160° |
| 2026-04-28 12:20 | 39.21531 | -106.86439 | 7827 ft | 15 kts | 159° |
| 2026-04-28 12:20 | 39.21444 | -106.86409 | 7827 ft | 8 kts | 208° |
| 2026-04-28 12:21 | 39.21437 | -106.86461 | 7827 ft | 4 kts | 306° |
| 2026-04-28 12:21 | 39.21449 | -106.86472 | 7827 ft | 0 kts | 340° |
| 2026-04-28 12:21 | 39.21484 | -106.86488 | 7827 ft | 31 kts | 340° |
| 2026-04-28 12:22 | 39.21978 | -106.86722 | 7827 ft | 119 kts | 339° |
| 2026-04-28 12:22 | 39.23006 | -106.87209 | 7827 ft | 192 kts | 340° |
| 2026-04-28 12:22 | 39.24386 | -106.87872 | 8381 ft | 234 kts | 339° |
| 2026-04-28 12:22 | 39.26066 | -106.88687 | 9081 ft | 276 kts | 340° |
| 2026-04-28 12:23 | 39.27718 | -106.89851 | 9697 ft | 265 kts | 319° |
| 2026-04-28 12:23 | 39.28704 | -106.91814 | 10360 ft | 268 kts | 293° |
| 2026-04-28 12:23 | 39.29279 | -106.94132 | 11021 ft | 270 kts | 285° |
| 2026-04-28 12:23 | 39.29792 | -106.96454 | 11649 ft | 267 kts | 285° |
| 2026-04-28 12:24 | 39.30388 | -106.98699 | 12273 ft | 266 kts | 288° |
| 2026-04-28 12:24 | 39.31120 | -107.00913 | 12846 ft | 270 kts | 292° |
| 2026-04-28 12:24 | 39.31984 | -107.03072 | 13335 ft | 271 kts | 295° |
| 2026-04-28 12:24 | 39.32954 | -107.05169 | 13790 ft | 273 kts | 298° |
| 2026-04-28 12:25 | 39.34012 | -107.07243 | 14248 ft | 278 kts | 300° |
| 2026-04-28 12:25 | 39.35131 | -107.09299 | 14703 ft | 281 kts | 301° |
| 2026-04-28 12:25 | 39.36273 | -107.11317 | 15150 ft | 283 kts | 302° |
| 2026-04-28 12:25 | 39.37552 | -107.13224 | 15588 ft | 290 kts | 315° |
| 2026-04-28 12:26 | 39.39463 | -107.14346 | 16051 ft | 309 kts | 342° |
| 2026-04-28 12:26 | 39.41662 | -107.14269 | 16523 ft | 325 kts | 5° |
| 2026-04-28 12:26 | 39.43806 | -107.13317 | 16983 ft | 334 kts | 20° |
| 2026-04-28 12:26 | 39.45671 | -107.11448 | 17433 ft | 346 kts | 46° |
| 2026-04-28 12:27 | 39.46807 | -107.08670 | 17890 ft | 354 kts | 73° |
| 2026-04-28 12:27 | 39.47076 | -107.05535 | 18354 ft | 355 kts | 92° |
| 2026-04-28 12:27 | 39.46803 | -107.02354 | 18819 ft | 354 kts | 103° |
| 2026-04-28 12:27 | 39.46252 | -106.99250 | 19275 ft | 355 kts | 108° |
| 2026-04-28 12:28 | 39.45572 | -106.96213 | 19723 ft | 356 kts | 110° |
| 2026-04-28 12:28 | 39.44825 | -106.93138 | 20177 ft | 357 kts | 111° |
| 2026-04-28 12:28 | 39.44064 | -106.90051 | 20629 ft | 360 kts | 111° |
| 2026-04-28 12:28 | 39.43322 | -106.86985 | 21075 ft | 363 kts | 110° |
| 2026-04-28 12:29 | 39.41868 | -106.80675 | 21978 ft | 368 kts | 109° |
| 2026-04-28 12:29 | 39.41169 | -106.77475 | 22429 ft | 371 kts | 108° |
| 2026-04-28 12:29 | 39.40482 | -106.74238 | 22881 ft | 374 kts | 108° |
| 2026-04-28 12:30 | 39.39806 | -106.70979 | 23332 ft | 377 kts | 107° |
| 2026-04-28 12:30 | 39.39137 | -106.67688 | 23783 ft | 379 kts | 107° |
| 2026-04-28 12:30 | 39.38470 | -106.64367 | 24235 ft | 382 kts | 107° |
| 2026-04-28 12:30 | 39.37816 | -106.61071 | 24679 ft | 385 kts | 107° |
| 2026-04-28 12:31 | 39.37148 | -106.57692 | 25129 ft | 389 kts | 106° |
| 2026-04-28 12:31 | 39.36476 | -106.54283 | 25580 ft | 393 kts | 107° |
| 2026-04-28 12:31 | 39.35902 | -106.50810 | 26032 ft | 398 kts | 100° |
| 2026-04-28 12:31 | 39.35615 | -106.47226 | 26487 ft | 403 kts | 95° |
| 2026-04-28 12:32 | 39.35522 | -106.43581 | 26942 ft | 408 kts | 91° |
| 2026-04-28 12:32 | 39.35552 | -106.39895 | 27411 ft | 412 kts | 89° |
| 2026-04-28 12:32 | 39.35655 | -106.36167 | 27891 ft | 418 kts | 87° |
| 2026-04-28 12:32 | 39.35804 | -106.32398 | 28347 ft | 423 kts | 86° |
| 2026-04-28 12:33 | 39.35981 | -106.28586 | 28796 ft | 428 kts | 86° |
| 2026-04-28 12:33 | 39.36173 | -106.24731 | 29246 ft | 432 kts | 86° |
| 2026-04-28 12:33 | 39.36371 | -106.20829 | 29697 ft | 437 kts | 86° |
| 2026-04-28 12:33 | 39.36570 | -106.16929 | 30144 ft | 443 kts | 86° |
| 2026-04-28 12:34 | 39.36770 | -106.12939 | 30595 ft | 447 kts | 86° |
| 2026-04-28 12:34 | 39.36968 | -106.08901 | 31046 ft | 452 kts | 86° |
| 2026-04-28 12:34 | 39.37165 | -106.04827 | 31500 ft | 455 kts | 86° |
| 2026-04-28 12:34 | 39.37360 | -106.00726 | 31953 ft | 458 kts | 87° |
| 2026-04-28 12:35 | 39.37549 | -105.96591 | 32405 ft | 462 kts | 87° |
| 2026-04-28 12:35 | 39.37734 | -105.92431 | 32793 ft | 467 kts | 87° |
| 2026-04-28 12:35 | 39.37918 | -105.88200 | 32936 ft | 475 kts | 87° |
| 2026-04-28 12:36 | 39.38278 | -105.79655 | 33009 ft | 476 kts | 88° |
| 2026-04-28 12:36 | 39.38626 | -105.71143 | 33003 ft | 477 kts | 88° |
| 2026-04-28 12:37 | 39.38969 | -105.62566 | 33001 ft | 477 kts | 88° |
| 2026-04-28 12:37 | 39.39303 | -105.53999 | 33001 ft | 477 kts | 88° |
| 2026-04-28 12:38 | 39.38692 | -105.45574 | 32998 ft | 472 kts | 105° |
| 2026-04-28 12:38 | 39.36851 | -105.37457 | 32990 ft | 468 kts | 114° |
| 2026-04-28 12:39 | 39.34555 | -105.29602 | 32982 ft | 466 kts | 117° |
| 2026-04-28 12:39 | 39.32107 | -105.21852 | 32973 ft | 465 kts | 117° |
| 2026-04-28 12:40 | 39.29628 | -105.14128 | 32963 ft | 465 kts | 118° |
| 2026-04-28 12:40 | 39.27177 | -105.06461 | 32956 ft | 465 kts | 117° |
| 2026-04-28 12:41 | 39.24724 | -104.98716 | 33011 ft | 466 kts | 117° |
| 2026-04-28 12:41 | 39.22264 | -104.90905 | 33059 ft | 474 kts | 117° |
| 2026-04-28 12:42 | 39.19783 | -104.82976 | 33057 ft | 477 kts | 117° |
| 2026-04-28 12:42 | 39.17309 | -104.75033 | 33055 ft | 478 kts | 117° |
| 2026-04-28 12:43 | 39.14847 | -104.67108 | 33056 ft | 478 kts | 117° |
| 2026-04-28 12:43 | 39.12379 | -104.59162 | 33057 ft | 479 kts | 117° |
| 2026-04-28 12:44 | 39.09894 | -104.51167 | 33062 ft | 479 kts | 117° |
| 2026-04-28 12:44 | 39.07422 | -104.43235 | 33065 ft | 479 kts | 117° |
| 2026-04-28 12:45 | 39.04931 | -104.35263 | 33065 ft | 479 kts | 117° |
| 2026-04-28 12:45 | 39.02439 | -104.27309 | 33065 ft | 479 kts | 117° |
| 2026-04-28 12:46 | 38.99958 | -104.19410 | 33064 ft | 479 kts | 117° |
| 2026-04-28 12:46 | 38.97464 | -104.11494 | 33063 ft | 479 kts | 117° |
| 2026-04-28 12:47 | 38.94952 | -104.03543 | 33062 ft | 479 kts | 117° |
| 2026-04-28 12:47 | 38.92437 | -103.95601 | 33061 ft | 479 kts | 118° |
| 2026-04-28 12:48 | 38.89928 | -103.87705 | 33060 ft | 479 kts | 118° |
| 2026-04-28 12:48 | 38.87417 | -103.79829 | 33060 ft | 479 kts | 118° |
| 2026-04-28 12:49 | 38.84885 | -103.71910 | 33062 ft | 479 kts | 118° |
| 2026-04-28 12:49 | 38.82579 | -103.63922 | 33066 ft | 487 kts | 106° |
| 2026-04-28 12:49 | 38.82470 | -103.59529 | 33073 ft | 497 kts | 85° |
| 2026-04-28 12:50 | 38.83303 | -103.55199 | 33080 ft | 499 kts | 70° |
| 2026-04-28 12:50 | 38.86386 | -103.47295 | 33077 ft | 495 kts | 56° |
| 2026-04-28 12:51 | 38.89570 | -103.41184 | 33074 ft | 492 kts | 51° |
| 2026-04-28 12:51 | 38.93579 | -103.34106 | 33071 ft | 491 kts | 50° |
| 2026-04-28 12:52 | 38.97632 | -103.26987 | 33071 ft | 491 kts | 50° |
| 2026-04-28 12:52 | 39.01573 | -103.19873 | 33071 ft | 491 kts | 52° |
| 2026-04-28 12:53 | 39.05459 | -103.12613 | 33072 ft | 491 kts | 53° |
| 2026-04-28 12:53 | 39.09244 | -103.05323 | 33074 ft | 491 kts | 53° |
| 2026-04-28 12:54 | 39.12987 | -102.97933 | 33076 ft | 491 kts | 54° |
| 2026-04-28 12:54 | 39.16660 | -102.90553 | 33078 ft | 492 kts | 54° |
| 2026-04-28 12:55 | 39.20316 | -102.83111 | 33080 ft | 492 kts | 55° |
| 2026-04-28 12:55 | 39.23964 | -102.75613 | 33082 ft | 492 kts | 55° |
| 2026-04-28 12:56 | 39.27581 | -102.68129 | 33087 ft | 492 kts | 56° |
| 2026-04-28 12:56 | 39.31191 | -102.60624 | 33089 ft | 492 kts | 56° |
| 2026-04-28 12:57 | 39.34775 | -102.53140 | 33090 ft | 492 kts | 56° |
| 2026-04-28 12:57 | 39.38373 | -102.45606 | 33090 ft | 491 kts | 56° |
| 2026-04-28 12:58 | 39.41962 | -102.38067 | 33091 ft | 491 kts | 56° |
| 2026-04-28 12:58 | 39.45534 | -102.30543 | 33094 ft | 494 kts | 56° |
| 2026-04-28 12:59 | 39.49132 | -102.22946 | 33100 ft | 496 kts | 57° |
| 2026-04-28 12:59 | 39.52729 | -102.15331 | 33108 ft | 497 kts | 57° |
| 2026-04-28 13:00 | 39.56327 | -102.07685 | 33114 ft | 497 kts | 57° |
| 2026-04-28 13:00 | 39.59383 | -101.99633 | 33146 ft | 498 kts | 72° |
| 2026-04-28 13:01 | 39.60957 | -101.90895 | 33140 ft | 498 kts | 82° |
| 2026-04-28 13:01 | 39.61838 | -101.82043 | 33146 ft | 496 kts | 86° |
| 2026-04-28 13:02 | 39.62465 | -101.73115 | 33136 ft | 496 kts | 88° |
| 2026-04-28 13:02 | 39.63014 | -101.64247 | 33136 ft | 496 kts | 88° |
| 2026-04-28 13:03 | 39.63566 | -101.55281 | 33138 ft | 496 kts | 88° |
| 2026-04-28 13:03 | 39.64133 | -101.46404 | 33144 ft | 496 kts | 88° |
| 2026-04-28 13:04 | 39.64728 | -101.37440 | 33158 ft | 497 kts | 88° |
| 2026-04-28 13:04 | 39.65340 | -101.28530 | 33170 ft | 498 kts | 88° |
| 2026-04-28 13:05 | 39.65970 | -101.19553 | 33179 ft | 499 kts | 88° |
| 2026-04-28 13:05 | 39.66606 | -101.10603 | 33186 ft | 499 kts | 88° |
| 2026-04-28 13:06 | 39.67249 | -101.01607 | 33191 ft | 500 kts | 88° |
| 2026-04-28 13:06 | 39.67891 | -100.92633 | 33190 ft | 501 kts | 88° |
| 2026-04-28 13:07 | 39.68531 | -100.83659 | 33184 ft | 501 kts | 88° |
| 2026-04-28 13:07 | 39.69172 | -100.74611 | 33176 ft | 502 kts | 88° |
| 2026-04-28 13:08 | 39.69804 | -100.65627 | 33167 ft | 502 kts | 88° |
| 2026-04-28 13:08 | 39.70438 | -100.56539 | 33159 ft | 502 kts | 88° |
| 2026-04-28 13:09 | 39.71062 | -100.47518 | 33150 ft | 502 kts | 88° |
| 2026-04-28 13:09 | 39.71677 | -100.38527 | 33149 ft | 502 kts | 89° |
| 2026-04-28 13:10 | 39.72289 | -100.29472 | 33147 ft | 502 kts | 89° |
| 2026-04-28 13:10 | 39.72891 | -100.20476 | 33144 ft | 502 kts | 89° |
| 2026-04-28 13:11 | 39.73489 | -100.11425 | 33143 ft | 502 kts | 89° |
| 2026-04-28 13:11 | 39.74079 | -100.02405 | 33141 ft | 502 kts | 89° |
| 2026-04-28 13:12 | 39.74663 | -99.93355 | 33140 ft | 502 kts | 89° |
| 2026-04-28 13:12 | 39.75239 | -99.84310 | 33140 ft | 502 kts | 89° |
| 2026-04-28 13:13 | 39.75808 | -99.75257 | 33144 ft | 502 kts | 89° |
| 2026-04-28 13:13 | 39.76368 | -99.66233 | 33150 ft | 502 kts | 89° |
| 2026-04-28 13:14 | 39.76922 | -99.57219 | 33158 ft | 502 kts | 89° |
| 2026-04-28 13:14 | 39.77468 | -99.48186 | 33168 ft | 503 kts | 89° |
| 2026-04-28 13:15 | 39.78014 | -99.39063 | 33175 ft | 503 kts | 89° |
| 2026-04-28 13:15 | 39.78549 | -99.29986 | 33178 ft | 504 kts | 89° |
| 2026-04-28 13:16 | 39.79075 | -99.20948 | 33178 ft | 504 kts | 89° |
| 2026-04-28 13:16 | 39.79598 | -99.11841 | 33178 ft | 504 kts | 89° |
| 2026-04-28 13:17 | 39.80112 | -99.02777 | 33178 ft | 505 kts | 89° |
| 2026-04-28 13:17 | 39.80623 | -98.93631 | 33178 ft | 505 kts | 89° |
| 2026-04-28 13:18 | 39.81123 | -98.84556 | 33179 ft | 506 kts | 89° |
| 2026-04-28 13:18 | 39.81620 | -98.75413 | 33179 ft | 506 kts | 89° |
| 2026-04-28 13:19 | 39.82107 | -98.66312 | 33178 ft | 506 kts | 89° |
| 2026-04-28 13:19 | 39.82592 | -98.57136 | 33177 ft | 506 kts | 89° |
| 2026-04-28 13:20 | 39.83067 | -98.48003 | 33176 ft | 506 kts | 89° |
| 2026-04-28 13:20 | 39.83534 | -98.38875 | 33172 ft | 506 kts | 89° |
| 2026-04-28 13:21 | 39.83992 | -98.29767 | 33168 ft | 506 kts | 89° |
| 2026-04-28 13:21 | 39.84445 | -98.20623 | 33165 ft | 506 kts | 89° |
| 2026-04-28 13:22 | 39.84890 | -98.11492 | 33162 ft | 506 kts | 89° |
| 2026-04-28 13:22 | 39.85326 | -98.02371 | 33160 ft | 506 kts | 89° |
| 2026-04-28 13:23 | 39.85755 | -97.93244 | 33159 ft | 506 kts | 90° |
| 2026-04-28 13:23 | 39.86180 | -97.84060 | 33157 ft | 506 kts | 90° |
| 2026-04-28 13:24 | 39.86591 | -97.74977 | 33156 ft | 506 kts | 90° |
| 2026-04-28 13:24 | 39.86947 | -97.65812 | 33155 ft | 505 kts | 91° |
| 2026-04-28 13:25 | 39.87140 | -97.56670 | 33155 ft | 505 kts | 92° |
| 2026-04-28 13:25 | 39.87251 | -97.47574 | 33156 ft | 505 kts | 92° |
| 2026-04-28 13:26 | 39.87327 | -97.38429 | 33158 ft | 505 kts | 93° |
| 2026-04-28 13:26 | 39.87385 | -97.29280 | 33159 ft | 505 kts | 93° |
| 2026-04-28 13:27 | 39.87434 | -97.20125 | 33161 ft | 505 kts | 93° |
| 2026-04-28 13:27 | 39.87478 | -97.10996 | 33164 ft | 506 kts | 93° |
| 2026-04-28 13:28 | 39.87518 | -97.01825 | 33166 ft | 505 kts | 93° |
| 2026-04-28 13:28 | 39.87553 | -96.92699 | 33167 ft | 505 kts | 93° |
| 2026-04-28 13:29 | 39.87581 | -96.83577 | 33168 ft | 505 kts | 93° |
| 2026-04-28 13:29 | 39.87604 | -96.74418 | 33169 ft | 505 kts | 93° |
| 2026-04-28 13:30 | 39.87621 | -96.65308 | 33169 ft | 504 kts | 93° |
| 2026-04-28 13:30 | 39.87632 | -96.56184 | 33169 ft | 504 kts | 93° |
| 2026-04-28 13:31 | 39.87635 | -96.42490 | 33169 ft | 504 kts | 93° |
| 2026-04-28 13:31 | 39.87629 | -96.33394 | 33170 ft | 504 kts | 93° |
| 2026-04-28 13:32 | 39.87615 | -96.24239 | 33170 ft | 504 kts | 93° |
| 2026-04-28 13:32 | 39.87594 | -96.15139 | 33170 ft | 503 kts | 93° |
| 2026-04-28 13:33 | 39.87567 | -96.06009 | 33170 ft | 503 kts | 93° |
| 2026-04-28 13:33 | 39.87532 | -95.96964 | 33169 ft | 503 kts | 93° |
| 2026-04-28 13:34 | 39.87490 | -95.87858 | 33169 ft | 502 kts | 93° |
| 2026-04-28 13:34 | 39.87441 | -95.78761 | 33170 ft | 502 kts | 94° |
| 2026-04-28 13:35 | 39.87385 | -95.69665 | 33170 ft | 503 kts | 94° |
| 2026-04-28 13:35 | 39.87321 | -95.60551 | 33169 ft | 503 kts | 94° |
| 2026-04-28 13:36 | 39.87250 | -95.51428 | 33167 ft | 503 kts | 94° |
| 2026-04-28 13:36 | 39.87172 | -95.42360 | 33166 ft | 504 kts | 93° |
| 2026-04-28 13:37 | 39.87086 | -95.33212 | 33165 ft | 505 kts | 94° |
| 2026-04-28 13:37 | 39.86994 | -95.24068 | 33163 ft | 505 kts | 93° |
| 2026-04-28 13:38 | 39.86911 | -95.16466 | 33162 ft | 505 kts | 94° |
| 2026-04-28 13:38 | 39.86788 | -95.05802 | 33160 ft | 506 kts | 93° |
| 2026-04-28 13:39 | 39.86674 | -94.96647 | 33159 ft | 507 kts | 94° |
| 2026-04-28 13:39 | 39.86574 | -94.88988 | 33159 ft | 507 kts | 94° |
| 2026-04-28 13:40 | 39.86445 | -94.79778 | 33158 ft | 508 kts | 93° |
| 2026-04-28 13:40 | 39.86311 | -94.70605 | 33157 ft | 508 kts | 94° |
| 2026-04-28 13:41 | 39.86170 | -94.61435 | 33156 ft | 508 kts | 94° |
| 2026-04-28 13:41 | 39.86021 | -94.52210 | 33155 ft | 509 kts | 93° |
| 2026-04-28 13:42 | 39.85864 | -94.42976 | 33153 ft | 509 kts | 94° |
| 2026-04-28 13:42 | 39.85699 | -94.33747 | 33152 ft | 509 kts | 94° |
| 2026-04-28 13:43 | 39.85529 | -94.24577 | 33147 ft | 509 kts | 94° |
| 2026-04-28 13:43 | 39.85350 | -94.15381 | 33146 ft | 509 kts | 94° |
| 2026-04-28 13:44 | 39.85163 | -94.06136 | 33145 ft | 509 kts | 94° |
| 2026-04-28 13:44 | 39.84970 | -93.96967 | 33146 ft | 509 kts | 94° |
| 2026-04-28 13:45 | 39.84768 | -93.87727 | 33145 ft | 509 kts | 94° |
| 2026-04-28 13:45 | 39.84559 | -93.78499 | 33145 ft | 509 kts | 94° |
| 2026-04-28 13:46 | 39.84343 | -93.69308 | 33147 ft | 509 kts | 94° |
| 2026-04-28 13:46 | 39.84119 | -93.60117 | 33149 ft | 509 kts | 94° |
| 2026-04-28 13:47 | 39.83887 | -93.50913 | 33149 ft | 509 kts | 94° |
| 2026-04-28 13:47 | 39.83648 | -93.41684 | 33147 ft | 510 kts | 94° |
| 2026-04-28 13:48 | 39.83570 | -93.32448 | 33144 ft | 510 kts | 92° |
| 2026-04-28 13:48 | 39.83647 | -93.23199 | 33139 ft | 510 kts | 91° |
| 2026-04-28 13:49 | 39.83783 | -93.13978 | 33133 ft | 510 kts | 90° |
| 2026-04-28 13:49 | 39.83937 | -93.04795 | 33126 ft | 510 kts | 90° |
| 2026-04-28 13:50 | 39.84089 | -92.95545 | 33120 ft | 510 kts | 91° |
| 2026-04-28 13:50 | 39.84230 | -92.86351 | 33116 ft | 510 kts | 91° |
| 2026-04-28 13:51 | 39.84361 | -92.77098 | 33112 ft | 509 kts | 91° |
| 2026-04-28 13:51 | 39.84479 | -92.67924 | 33109 ft | 509 kts | 91° |
| 2026-04-28 13:52 | 39.84588 | -92.58688 | 33106 ft | 509 kts | 91° |
| 2026-04-28 13:52 | 39.84686 | -92.49490 | 33105 ft | 509 kts | 91° |
| 2026-04-28 13:53 | 39.84775 | -92.40258 | 33104 ft | 509 kts | 91° |
| 2026-04-28 13:53 | 39.84855 | -92.31101 | 33103 ft | 508 kts | 91° |
| 2026-04-28 13:54 | 39.84927 | -92.21877 | 33104 ft | 508 kts | 91° |
| 2026-04-28 13:54 | 39.84991 | -92.12705 | 33105 ft | 508 kts | 91° |
| 2026-04-28 13:55 | 39.85047 | -92.03532 | 33104 ft | 508 kts | 91° |
| 2026-04-28 13:55 | 39.85096 | -91.94346 | 33103 ft | 507 kts | 91° |
| 2026-04-28 13:56 | 39.85138 | -91.85166 | 33100 ft | 507 kts | 92° |
| 2026-04-28 13:56 | 39.85172 | -91.75971 | 33099 ft | 507 kts | 92° |
| 2026-04-28 13:57 | 39.85198 | -91.66839 | 33097 ft | 507 kts | 92° |
| 2026-04-28 13:57 | 39.85218 | -91.57637 | 33096 ft | 507 kts | 92° |
| 2026-04-28 13:58 | 39.85230 | -91.48451 | 33096 ft | 508 kts | 92° |
| 2026-04-28 13:58 | 39.85236 | -91.39256 | 33094 ft | 508 kts | 92° |
| 2026-04-28 13:59 | 39.85234 | -91.30111 | 33089 ft | 508 kts | 92° |
| 2026-04-28 13:59 | 39.85224 | -91.20917 | 33084 ft | 508 kts | 92° |
| 2026-04-28 14:00 | 39.85207 | -91.11732 | 33084 ft | 507 kts | 92° |
| 2026-04-28 14:00 | 39.85182 | -91.02546 | 33087 ft | 507 kts | 92° |
| 2026-04-28 14:01 | 39.85151 | -90.93425 | 33091 ft | 507 kts | 92° |
| 2026-04-28 14:01 | 39.85112 | -90.84240 | 33096 ft | 507 kts | 92° |
| 2026-04-28 14:02 | 39.85066 | -90.75049 | 33099 ft | 507 kts | 92° |
| 2026-04-28 14:02 | 39.85013 | -90.65877 | 33099 ft | 506 kts | 93° |
| 2026-04-28 14:03 | 39.84954 | -90.56773 | 33096 ft | 506 kts | 93° |
| 2026-04-28 14:03 | 39.84886 | -90.47610 | 33095 ft | 506 kts | 93° |
| 2026-04-28 14:04 | 39.84811 | -90.38453 | 33092 ft | 506 kts | 93° |
| 2026-04-28 14:04 | 39.84728 | -90.29306 | 33090 ft | 505 kts | 93° |
| 2026-04-28 14:05 | 39.84639 | -90.20151 | 33089 ft | 505 kts | 93° |
| 2026-04-28 14:05 | 39.84542 | -90.11021 | 33089 ft | 505 kts | 93° |
| 2026-04-28 14:06 | 39.84438 | -90.01887 | 33089 ft | 504 kts | 93° |
| 2026-04-28 14:06 | 39.84327 | -89.92759 | 33088 ft | 504 kts | 94° |
| 2026-04-28 14:07 | 39.84208 | -89.83691 | 33088 ft | 504 kts | 94° |
| 2026-04-28 14:07 | 39.84080 | -89.74567 | 33089 ft | 504 kts | 94° |
| 2026-04-28 14:08 | 39.84003 | -89.65436 | 33089 ft | 505 kts | 92° |
| 2026-04-28 14:08 | 39.84013 | -89.56297 | 33088 ft | 505 kts | 92° |
| 2026-04-28 14:09 | 39.84058 | -89.47165 | 33088 ft | 505 kts | 92° |
| 2026-04-28 14:09 | 39.84112 | -89.38019 | 33086 ft | 505 kts | 92° |
| 2026-04-28 14:10 | 39.84160 | -89.28911 | 32774 ft | 505 kts | 92° |
| 2026-04-28 14:10 | 39.84183 | -89.24366 | 32467 ft | 494 kts | 92° |
| 2026-04-28 14:10 | 39.84204 | -89.19936 | 32147 ft | 482 kts | 92° |
| 2026-04-28 14:11 | 39.84223 | -89.15597 | 31825 ft | 473 kts | 92° |
| 2026-04-28 14:11 | 39.84239 | -89.11381 | 31515 ft | 458 kts | 92° |
| 2026-04-28 14:11 | 39.84252 | -89.07322 | 31198 ft | 451 kts | 92° |
| 2026-04-28 14:11 | 39.84261 | -89.03240 | 30877 ft | 449 kts | 92° |
| 2026-04-28 14:12 | 39.84265 | -88.99169 | 30559 ft | 448 kts | 92° |
| 2026-04-28 14:12 | 39.84266 | -88.95116 | 30241 ft | 446 kts | 92° |
| 2026-04-28 14:12 | 39.84265 | -88.91092 | 29924 ft | 444 kts | 92° |
| 2026-04-28 14:12 | 39.84263 | -88.87119 | 29610 ft | 442 kts | 93° |
| 2026-04-28 14:13 | 39.84259 | -88.83106 | 29291 ft | 440 kts | 93° |
| 2026-04-28 14:13 | 39.84255 | -88.79159 | 28975 ft | 437 kts | 93° |
| 2026-04-28 14:13 | 39.84249 | -88.75188 | 28657 ft | 435 kts | 93° |
| 2026-04-28 14:13 | 39.84242 | -88.71306 | 28343 ft | 433 kts | 93° |
| 2026-04-28 14:14 | 39.84234 | -88.67386 | 28025 ft | 431 kts | 93° |
| 2026-04-28 14:14 | 39.84223 | -88.63470 | 27706 ft | 429 kts | 93° |
| 2026-04-28 14:14 | 39.84212 | -88.59642 | 27392 ft | 427 kts | 93° |
| 2026-04-28 14:14 | 39.84199 | -88.55791 | 27074 ft | 425 kts | 93° |
| 2026-04-28 14:15 | 39.84186 | -88.51951 | 26757 ft | 423 kts | 93° |
| 2026-04-28 14:15 | 39.84172 | -88.48125 | 26438 ft | 421 kts | 93° |
| 2026-04-28 14:15 | 39.84157 | -88.44315 | 26120 ft | 419 kts | 93° |
| 2026-04-28 14:15 | 39.84141 | -88.40553 | 25804 ft | 417 kts | 93° |
| 2026-04-28 14:16 | 39.84123 | -88.36781 | 25486 ft | 415 kts | 94° |
| 2026-04-28 14:16 | 39.84104 | -88.33029 | 25168 ft | 413 kts | 94° |
| 2026-04-28 14:16 | 39.84083 | -88.29306 | 24851 ft | 411 kts | 94° |
| 2026-04-28 14:16 | 39.84063 | -88.25599 | 24533 ft | 409 kts | 94° |
| 2026-04-28 14:17 | 39.84042 | -88.21912 | 24216 ft | 407 kts | 94° |
| 2026-04-28 14:17 | 39.84021 | -88.18233 | 23899 ft | 405 kts | 94° |
| 2026-04-28 14:17 | 39.83999 | -88.14621 | 23585 ft | 403 kts | 94° |
| 2026-04-28 14:17 | 39.83975 | -88.10971 | 23267 ft | 401 kts | 94° |
| 2026-04-28 14:18 | 39.83950 | -88.07348 | 22950 ft | 399 kts | 94° |
| 2026-04-28 14:18 | 39.83924 | -88.03744 | 22633 ft | 397 kts | 94° |
| 2026-04-28 14:18 | 39.83897 | -88.00156 | 22315 ft | 395 kts | 93° |
| 2026-04-28 14:18 | 39.83869 | -87.96578 | 21997 ft | 393 kts | 93° |
| 2026-04-28 14:19 | 39.83840 | -87.93061 | 21682 ft | 391 kts | 93° |
| 2026-04-28 14:19 | 39.83810 | -87.89509 | 21363 ft | 389 kts | 93° |
| 2026-04-28 14:19 | 39.83778 | -87.85989 | 21045 ft | 387 kts | 93° |
| 2026-04-28 14:19 | 39.83747 | -87.82538 | 20732 ft | 385 kts | 93° |
| 2026-04-28 14:20 | 39.83714 | -87.79037 | 20412 ft | 383 kts | 93° |
| 2026-04-28 14:20 | 39.83680 | -87.75564 | 20094 ft | 381 kts | 93° |
| 2026-04-28 14:20 | 39.83645 | -87.72154 | 19779 ft | 380 kts | 93° |
| 2026-04-28 14:20 | 39.83609 | -87.68721 | 19461 ft | 378 kts | 93° |
| 2026-04-28 14:21 | 39.83572 | -87.65298 | 19142 ft | 376 kts | 93° |
| 2026-04-28 14:21 | 39.83534 | -87.61894 | 18825 ft | 374 kts | 92° |
| 2026-04-28 14:21 | 39.83496 | -87.58546 | 18510 ft | 373 kts | 92° |
| 2026-04-28 14:21 | 39.83457 | -87.55170 | 18192 ft | 371 kts | 92° |
| 2026-04-28 14:22 | 39.83417 | -87.51815 | 17873 ft | 369 kts | 92° |
| 2026-04-28 14:22 | 39.83377 | -87.48515 | 17559 ft | 367 kts | 92° |
| 2026-04-28 14:22 | 39.83336 | -87.45201 | 17242 ft | 365 kts | 92° |
| 2026-04-28 14:22 | 39.83294 | -87.41889 | 16922 ft | 363 kts | 92° |
| 2026-04-28 14:23 | 39.83251 | -87.38656 | 16608 ft | 361 kts | 92° |
| 2026-04-28 14:23 | 39.83207 | -87.35396 | 16290 ft | 358 kts | 92° |
| 2026-04-28 14:23 | 39.83163 | -87.32159 | 15973 ft | 356 kts | 91° |
| 2026-04-28 14:23 | 39.83150 | -87.31213 | 15879 ft | 355 kts | 91° |
| 2026-04-28 14:24 | 39.83105 | -87.28001 | 15562 ft | 351 kts | 91° |
| 2026-04-28 14:24 | 39.83120 | -87.24896 | 15199 ft | 342 kts | 87° |
| 2026-04-28 14:24 | 39.83378 | -87.21845 | 14756 ft | 335 kts | 79° |
| 2026-04-28 14:24 | 39.83866 | -87.18914 | 14312 ft | 327 kts | 74° |
| 2026-04-28 14:25 | 39.84437 | -87.16073 | 13872 ft | 321 kts | 72° |
| 2026-04-28 14:25 | 39.85048 | -87.13294 | 13421 ft | 315 kts | 69° |
| 2026-04-28 14:25 | 39.85613 | -87.11446 | 13113 ft | 310 kts | 62° |
| 2026-04-28 14:25 | 39.85752 | -87.11048 | 13044 ft | 309 kts | 61° |
| 2026-04-28 14:26 | 39.86698 | -87.08566 | 12601 ft | 303 kts | 58° |
| 2026-04-28 14:26 | 39.87682 | -87.06165 | 12152 ft | 296 kts | 57° |
| 2026-04-28 14:26 | 39.88656 | -87.03841 | 11697 ft | 287 kts | 56° |
| 2026-04-28 14:26 | 39.89690 | -87.01671 | 11250 ft | 276 kts | 50° |
| 2026-04-28 14:27 | 39.90799 | -86.99724 | 10808 ft | 264 kts | 46° |
| 2026-04-28 14:27 | 39.91922 | -86.97875 | 10357 ft | 256 kts | 45° |
| 2026-04-28 14:27 | 39.93031 | -86.96093 | 9904 ft | 250 kts | 45° |
| 2026-04-28 14:27 | 39.94115 | -86.94377 | 9455 ft | 244 kts | 45° |
| 2026-04-28 14:28 | 39.95195 | -86.92691 | 8999 ft | 240 kts | 45° |
| 2026-04-28 14:28 | 39.96271 | -86.91031 | 8550 ft | 237 kts | 45° |
| 2026-04-28 14:28 | 39.97336 | -86.89396 | 8097 ft | 235 kts | 45° |
| 2026-04-28 14:28 | 39.98360 | -86.87747 | 7650 ft | 233 kts | 47° |
| 2026-04-28 14:29 | 39.99344 | -86.86070 | 7202 ft | 232 kts | 50° |
| 2026-04-28 14:29 | 40.00279 | -86.84390 | 6753 ft | 230 kts | 50° |
| 2026-04-28 14:29 | 40.01196 | -86.82674 | 6301 ft | 229 kts | 53° |
| 2026-04-28 14:29 | 40.01992 | -86.80876 | 5862 ft | 228 kts | 58° |
| 2026-04-28 14:30 | 40.02733 | -86.79047 | 5417 ft | 227 kts | 59° |
| 2026-04-28 14:30 | 40.03427 | -86.77244 | 5093 ft | 220 kts | 63° |
| 2026-04-28 14:30 | 40.03976 | -86.75420 | 5021 ft | 212 kts | 68° |
| 2026-04-28 14:30 | 40.04433 | -86.73582 | 5004 ft | 212 kts | 71° |
| 2026-04-28 14:31 | 40.04791 | -86.71709 | 5015 ft | 214 kts | 77° |
| 2026-04-28 14:31 | 40.05063 | -86.69810 | 5003 ft | 216 kts | 78° |
| 2026-04-28 14:31 | 40.05556 | -86.67958 | 4925 ft | 216 kts | 61° |
| 2026-04-28 14:31 | 40.06177 | -86.66163 | 4930 ft | 217 kts | 70° |
| 2026-04-28 14:32 | 40.06410 | -86.64230 | 4887 ft | 219 kts | 88° |
| 2026-04-28 14:32 | 40.06204 | -86.62265 | 4876 ft | 218 kts | 107° |
| 2026-04-28 14:32 | 40.05579 | -86.60484 | 4873 ft | 214 kts | 126° |
| 2026-04-28 14:32 | 40.04601 | -86.59050 | 4877 ft | 209 kts | 144° |
| 2026-04-28 14:33 | 40.03393 | -86.58104 | 4890 ft | 202 kts | 163° |
| 2026-04-28 14:33 | 40.02075 | -86.57683 | 4985 ft | 191 kts | 179° |
| 2026-04-28 14:33 | 40.00745 | -86.57533 | 5068 ft | 191 kts | 184° |
| 2026-04-28 14:33 | 39.99432 | -86.57443 | 5187 ft | 190 kts | 184° |
| 2026-04-28 14:34 | 39.96804 | -86.56578 | 5390 ft | 199 kts | 166° |
| 2026-04-28 14:34 | 39.95519 | -86.55890 | 5548 ft | 200 kts | 163° |
| 2026-04-28 14:34 | 39.94248 | -86.55100 | 5657 ft | 203 kts | 160° |
| 2026-04-28 14:35 | 39.93027 | -86.54211 | 5821 ft | 199 kts | 156° |
| 2026-04-28 14:35 | 39.91933 | -86.53238 | 5961 ft | 185 kts | 151° |
| 2026-04-28 14:35 | 39.90894 | -86.52157 | 5341 ft | 191 kts | 146° |
| 2026-04-28 14:35 | 39.89923 | -86.51012 | 4767 ft | 186 kts | 143° |
| 2026-04-28 14:36 | 39.89015 | -86.49846 | 4122 ft | 184 kts | 140° |
| 2026-04-28 14:36 | 39.88135 | -86.48652 | 3436 ft | 181 kts | 138° |
| 2026-04-28 14:36 | 39.87281 | -86.47465 | 2777 ft | 176 kts | 136° |
| 2026-04-28 14:36 | 39.86496 | -86.46323 | 2479 ft | 163 kts | 135° |
| 2026-04-28 14:37 | 39.85729 | -86.45253 | 2341 ft | 159 kts | 136° |
| 2026-04-28 14:37 | 39.84980 | -86.44218 | 2236 ft | 156 kts | 133° |
| 2026-04-28 14:37 | 39.84257 | -86.43168 | 2170 ft | 153 kts | 131° |
| 2026-04-28 14:37 | 39.83506 | -86.42081 | 2132 ft | 182 kts | 133° |
| 2026-04-28 14:38 | 39.82564 | -86.40724 | 2205 ft | 215 kts | 133° |
| 2026-04-28 14:38 | 39.81636 | -86.39403 | 2415 ft | 175 kts | 134° |
| 2026-04-28 14:38 | 39.80859 | -86.38295 | 2303 ft | 164 kts | 133° |
| 2026-04-28 14:38 | 39.80021 | -86.37221 | 2247 ft | 174 kts | 134° |
| 2026-04-28 14:39 | 39.79093 | -86.36080 | 2257 ft | 188 kts | 137° |
| 2026-04-28 14:39 | 39.78147 | -86.34888 | 2245 ft | 195 kts | 135° |
| 2026-04-28 14:39 | 39.77210 | -86.33658 | 2147 ft | 180 kts | 136° |
| 2026-04-28 14:39 | 39.76392 | -86.32613 | 1867 ft | 156 kts | 135° |
| 2026-04-28 14:40 | 39.75588 | -86.31625 | 1527 ft | 166 kts | 137° |
| 2026-04-28 14:40 | 39.75010 | -86.30925 | 1378 ft | 170 kts | 136° |
| 2026-04-28 14:40 | 39.73895 | -86.29479 | 1019 ft | 164 kts | 133° |
| 2026-04-28 14:40 | 39.73135 | -86.28486 | 815 ft | 138 kts | 133° |
| 2026-04-28 14:41 | 39.72569 | -86.27747 | 805 ft | 89 kts | 137° |
| 2026-04-28 14:41 | 39.72335 | -86.27450 | 805 ft | 29 kts | 133° |
| 2026-04-28 14:41 | 39.72208 | -86.27375 | 805 ft | 15 kts | 193° |
| 2026-04-28 14:41 | 39.72133 | -86.27411 | 805 ft | 9 kts | 184° |
| 2026-04-28 14:42 | 39.72071 | -86.27401 | 805 ft | 10 kts | 207° |
| 2026-04-28 14:42 | 39.72004 | -86.27455 | 805 ft | 6 kts | 174° |
| 2026-04-28 14:42 | 39.71949 | -86.27395 | 805 ft | 8 kts | 137° |
| 2026-04-28 14:42 | 39.71934 | -86.27376 | 805 ft | 0 kts | 137° |